createdAt,value
2018-06-29T00:00:24.012Z,19.80
2018-06-29T00:03:57.428Z,19.80
2018-06-29T00:07:30.823Z,19.80
2018-06-29T00:11:04.245Z,19.80
2018-06-29T00:14:37.663Z,19.80
2018-06-29T00:18:11.067Z,19.80
2018-06-29T00:21:44.476Z,19.80
2018-06-29T00:25:17.852Z,19.80
2018-06-29T00:28:51.215Z,19.80
2018-06-29T00:32:24.585Z,19.80
2018-06-29T00:35:57.962Z,19.70
2018-06-29T00:39:31.378Z,19.70
2018-06-29T00:43:04.780Z,19.80
2018-06-29T00:46:38.200Z,19.80
2018-06-29T00:50:11.592Z,19.90
2018-06-29T00:53:44.979Z,19.80
2018-06-29T00:57:18.388Z,19.80
2018-06-29T01:00:51.776Z,19.80
2018-06-29T01:04:25.168Z,19.80
2018-06-29T01:07:58.563Z,19.80
2018-06-29T01:11:31.956Z,19.80
2018-06-29T01:15:05.569Z,19.80
2018-06-29T01:18:38.931Z,19.90
2018-06-29T01:22:12.320Z,19.90
2018-06-29T01:25:45.723Z,19.90
2018-06-29T01:29:19.128Z,19.90
2018-06-29T01:32:52.495Z,19.90
2018-06-29T01:39:58.987Z,19.90
2018-06-29T01:47:05.500Z,19.80
2018-06-29T01:50:39.151Z,19.80
2018-06-29T01:54:12.564Z,19.70
2018-06-29T01:57:46.019Z,19.70
2018-06-29T02:01:19.530Z,19.70
2018-06-29T02:08:26.048Z,19.70
2018-06-29T02:11:59.481Z,19.80
2018-06-29T02:15:32.872Z,19.80
2018-06-29T02:19:06.275Z,19.80
2018-06-29T02:22:39.668Z,19.80
2018-06-29T02:26:13.071Z,19.80
2018-06-29T02:29:46.461Z,19.80
2018-06-29T02:33:19.869Z,19.80
2018-06-29T02:36:53.260Z,19.80
2018-06-29T02:40:26.647Z,19.70
2018-06-29T02:47:33.154Z,19.40
2018-06-29T02:54:39.708Z,19.40
2018-06-29T02:58:13.104Z,19.40
2018-06-29T03:01:46.531Z,19.40
2018-06-29T03:05:19.957Z,19.30
2018-06-29T03:08:53.355Z,19.30
2018-06-29T03:12:26.727Z,19.30
2018-06-29T03:15:59.981Z,19.30
2018-06-29T03:19:33.224Z,19.30
2018-06-29T03:23:06.504Z,19.30
2018-06-29T03:26:39.985Z,19.20
2018-06-29T03:30:13.245Z,19.10
2018-06-29T03:33:46.504Z,18.90
2018-06-29T03:37:19.748Z,18.90
2018-06-29T03:40:53.195Z,18.80
2018-06-29T03:44:26.467Z,18.70
2018-06-29T03:47:59.735Z,18.70
2018-06-29T03:51:32.960Z,18.70
2018-06-29T03:55:06.206Z,18.70
2018-06-29T03:58:39.468Z,18.70
2018-06-29T04:02:12.716Z,18.80
2018-06-29T04:05:45.957Z,18.80
2018-06-29T04:09:19.216Z,18.90
2018-06-29T04:12:52.489Z,18.90
2018-06-29T04:16:25.703Z,19.00
2018-06-29T04:19:58.989Z,19.00
2018-06-29T04:23:32.265Z,19.10
2018-06-29T04:27:05.503Z,19.20
2018-06-29T04:30:38.899Z,19.30
2018-06-29T04:34:12.139Z,19.30
2018-06-29T04:37:45.392Z,19.20
2018-06-29T04:41:18.616Z,19.30
2018-06-29T04:44:51.869Z,19.30
2018-06-29T04:51:58.117Z,19.20
2018-06-29T04:55:31.355Z,19.30
2018-06-29T04:59:04.633Z,19.30
2018-06-29T05:02:37.883Z,19.30
2018-06-29T05:06:11.170Z,19.20
2018-06-29T05:13:17.435Z,19.30
2018-06-29T05:16:50.692Z,19.40
2018-06-29T05:20:23.965Z,19.50
2018-06-29T05:27:30.260Z,19.60
2018-06-29T05:34:36.475Z,19.80
2018-06-29T05:38:09.749Z,19.80
2018-06-29T05:45:16.008Z,19.80
2018-06-29T05:48:49.250Z,19.80
2018-06-29T05:55:55.473Z,20.00
2018-06-29T05:59:28.743Z,20.10
2018-06-29T06:06:35.013Z,20.40
2018-06-29T06:10:08.349Z,20.50
2018-06-29T06:13:41.548Z,20.60
2018-06-29T06:17:14.924Z,20.70
2018-06-29T06:20:48.188Z,20.70
2018-06-29T06:24:21.434Z,20.80
2018-06-29T06:38:33.661Z,20.90
2018-06-29T06:42:06.930Z,20.90
2018-06-29T06:45:40.194Z,20.90
2018-06-29T06:49:13.453Z,20.90
2018-06-29T06:52:46.780Z,21.00
2018-06-29T06:56:20.027Z,21.00
2018-06-29T06:59:53.267Z,21.10
2018-06-29T07:03:26.516Z,21.10
2018-06-29T07:10:32.772Z,21.30
2018-06-29T07:14:06.037Z,21.40
2018-06-29T07:17:39.291Z,21.50
2018-06-29T07:21:12.544Z,21.60
2018-06-29T07:24:45.818Z,21.70
2018-06-29T07:28:19.076Z,21.80
2018-06-29T07:31:52.313Z,21.80
2018-06-29T07:42:31.584Z,22.30
2018-06-29T07:46:04.888Z,22.50
2018-06-29T07:49:38.135Z,22.70
2018-06-29T07:53:11.387Z,22.90
2018-06-29T07:56:44.641Z,23.00
2018-06-29T08:00:17.868Z,23.10
2018-06-29T08:03:51.184Z,23.20
2018-06-29T08:07:24.524Z,23.30
2018-06-29T08:10:57.864Z,23.40
2018-06-29T08:14:31.125Z,23.40
2018-06-29T08:18:04.387Z,23.40
2018-06-29T08:21:38.504Z,23.50
2018-06-29T08:25:14.599Z,23.50
2018-06-29T08:28:49.407Z,23.50
2018-06-29T08:32:22.891Z,23.50
2018-06-29T08:35:56.573Z,23.50
2018-06-29T08:39:29.801Z,23.60
2018-06-29T08:43:04.020Z,23.70
2018-06-29T08:46:37.416Z,23.80
2018-06-29T08:50:11.501Z,23.90
2018-06-29T08:53:45.025Z,24.00
2018-06-29T08:57:19.728Z,24.10
2018-06-29T09:00:53.384Z,24.10
2018-06-29T09:04:26.683Z,24.10
2018-06-29T09:08:00.289Z,24.20
2018-06-29T09:11:33.616Z,24.30
2018-06-29T09:15:06.981Z,24.40
2018-06-29T09:18:40.246Z,24.60
2018-06-29T09:22:13.517Z,24.60
2018-06-29T09:25:47.134Z,24.70
2018-06-29T09:29:20.483Z,24.80
2018-06-29T09:32:53.953Z,24.80
2018-06-29T09:36:27.343Z,24.90
2018-06-29T09:40:00.758Z,25.00
2018-06-29T09:47:07.112Z,25.20
2018-06-29T09:50:41.467Z,25.20
2018-06-29T09:54:14.941Z,25.30
2018-06-29T09:57:48.196Z,25.30
2018-06-29T10:01:21.485Z,25.40
2018-06-29T10:04:54.680Z,25.40
2018-06-29T10:08:27.904Z,25.40
2018-06-29T10:22:40.122Z,25.60
2018-06-29T10:26:13.363Z,25.70
2018-06-29T10:29:46.609Z,25.80
2018-06-29T10:33:19.835Z,25.80
2018-06-29T10:36:53.223Z,25.90
2018-06-29T10:43:59.415Z,26.00
2018-06-29T10:47:32.670Z,26.10
2018-06-29T10:54:38.996Z,26.30
2018-06-29T10:58:12.251Z,26.40
2018-06-29T11:01:45.494Z,26.70
2018-06-29T11:05:18.748Z,26.90
2018-06-29T11:08:52.057Z,27.10
2018-06-29T11:12:25.296Z,27.20
2018-06-29T11:15:58.563Z,27.40
2018-06-29T11:19:31.791Z,27.50
2018-06-29T11:23:05.020Z,27.60
2018-06-29T11:26:38.296Z,27.80
2018-06-29T11:30:11.534Z,28.10
2018-06-29T11:33:44.786Z,28.30
2018-06-29T11:37:18.299Z,28.40
2018-06-29T11:40:51.587Z,28.30
2018-06-29T11:44:24.787Z,28.30
2018-06-29T11:47:58.020Z,28.50
2018-06-29T11:51:31.285Z,28.60
2018-06-29T11:55:04.530Z,28.60
2018-06-29T11:58:37.859Z,28.60
2018-06-29T12:02:11.099Z,28.60
2018-06-29T12:05:44.355Z,28.60
2018-06-29T12:09:17.599Z,28.60
2018-06-29T12:12:50.848Z,28.50
2018-06-29T12:16:24.171Z,28.50
2018-06-29T12:19:57.448Z,28.50
2018-06-29T12:23:30.709Z,28.40
2018-06-29T12:27:03.960Z,28.40
2018-06-29T12:30:37.250Z,28.30
2018-06-29T12:34:10.544Z,28.20
2018-06-29T12:37:43.761Z,28.20
2018-06-29T12:41:17.012Z,28.30
2018-06-29T12:44:50.270Z,28.50
2018-06-29T12:48:23.548Z,28.70
2018-06-29T12:51:56.805Z,28.90
2018-06-29T12:55:30.228Z,29.20
2018-06-29T12:59:03.523Z,29.50
2018-06-29T13:02:36.785Z,29.80
2018-06-29T13:06:10.097Z,30.00
2018-06-29T13:09:43.367Z,30.00
2018-06-29T13:13:16.867Z,29.80
2018-06-29T13:16:50.112Z,29.60
2018-06-29T13:20:23.367Z,29.50
2018-06-29T13:23:56.893Z,29.40
2018-06-29T13:31:03.318Z,29.30
2018-06-29T13:34:36.808Z,29.30
2018-06-29T13:38:10.093Z,29.30
2018-06-29T13:41:43.361Z,29.30
2018-06-29T13:45:16.634Z,29.50
2018-06-29T13:48:50.076Z,29.70
2018-06-29T13:52:23.333Z,29.90
2018-06-29T13:55:56.800Z,30.10
2018-06-29T14:03:03.102Z,30.20
2018-06-29T14:06:36.393Z,30.10
2018-06-29T14:10:09.716Z,30.10
2018-06-29T14:13:43.094Z,30.00
2018-06-29T14:17:16.382Z,29.90
2018-06-29T14:20:49.668Z,30.00
2018-06-29T14:24:22.960Z,30.20
2018-06-29T14:27:56.225Z,30.60
2018-06-29T14:31:29.844Z,31.10
2018-06-29T14:35:03.182Z,31.60
2018-06-29T14:38:36.597Z,32.00
2018-06-29T14:42:09.877Z,32.20
2018-06-29T14:45:43.136Z,32.20
2018-06-29T14:49:16.707Z,32.50
2018-06-29T14:52:50.033Z,32.70
2018-06-29T14:56:23.432Z,32.80
2018-06-29T15:10:41.396Z,32.80
2018-06-29T15:14:14.649Z,32.90
2018-06-29T15:17:47.968Z,32.60
2018-06-29T15:21:21.245Z,32.50
2018-06-29T15:24:54.495Z,32.70
2018-06-29T15:28:27.807Z,33.10
2018-06-29T15:32:01.073Z,33.20
2018-06-29T15:35:34.343Z,33.30
2018-06-29T15:39:10.357Z,33.30
2018-06-29T15:42:43.608Z,33.50
2018-06-29T15:46:16.856Z,33.70
2018-06-29T15:49:50.104Z,34.10
2018-06-29T15:53:23.360Z,34.20
2018-06-29T15:56:56.616Z,34.30
2018-06-29T16:00:29.904Z,34.40
2018-06-29T16:04:03.247Z,34.50
2018-06-29T16:07:36.851Z,34.60
2018-06-29T16:11:10.084Z,34.60
2018-06-29T16:14:43.332Z,34.50
2018-06-29T16:18:16.609Z,34.30
2018-06-29T16:21:49.885Z,34.00
2018-06-29T16:25:23.153Z,33.60
2018-06-29T16:28:56.392Z,33.30
2018-06-29T16:32:29.639Z,32.90
2018-06-29T16:36:02.935Z,32.50
2018-06-29T16:39:36.455Z,32.00
2018-06-29T16:43:09.699Z,31.60
2018-06-29T16:46:42.951Z,31.20
2018-06-29T16:50:16.403Z,30.80
2018-06-29T16:53:49.789Z,30.50
2018-06-29T16:57:23.088Z,30.30
2018-06-29T17:00:56.618Z,30.20
2018-06-29T17:04:29.868Z,30.10
2018-06-29T17:08:03.947Z,29.90
2018-06-29T17:11:37.206Z,29.80
2018-06-29T17:15:10.463Z,29.60
2018-06-29T17:18:43.811Z,29.40
2018-06-29T17:25:49.988Z,29.20
2018-06-29T17:29:23.260Z,29.10
2018-06-29T17:32:56.494Z,29.00
2018-06-29T17:36:29.751Z,29.00
2018-06-29T17:40:03.194Z,29.00
2018-06-29T17:43:36.443Z,28.90
2018-06-29T17:47:09.700Z,28.80
2018-06-29T17:50:42.956Z,28.80
2018-06-29T17:54:16.204Z,28.70
2018-06-29T17:57:49.552Z,28.70
2018-06-29T18:01:22.800Z,28.60
2018-06-29T18:04:56.058Z,28.60
2018-06-29T18:12:02.340Z,28.50
2018-06-29T18:15:35.888Z,28.40
2018-06-29T18:22:42.952Z,28.30
2018-06-29T18:26:16.200Z,28.30
2018-06-29T18:29:49.461Z,28.20
2018-06-29T18:33:22.707Z,28.10
2018-06-29T18:36:55.935Z,28.00
2018-06-29T18:40:29.207Z,28.00
2018-06-29T18:44:02.452Z,27.90
2018-06-29T18:47:35.704Z,27.80
2018-06-29T18:51:08.994Z,27.80
2018-06-29T18:54:42.238Z,27.70
2018-06-29T18:58:15.505Z,27.70
2018-06-29T19:01:48.787Z,27.60
2018-06-29T19:05:22.408Z,27.60
2018-06-29T19:08:55.641Z,27.50
2018-06-29T19:12:28.928Z,27.40
2018-06-29T19:16:02.200Z,27.40
2018-06-29T19:19:35.448Z,27.30
2018-06-29T19:23:08.811Z,27.20
2018-06-29T19:26:42.098Z,27.00
2018-06-29T19:30:15.417Z,27.00
2018-06-29T19:33:48.649Z,26.90
2018-06-29T19:37:21.945Z,26.80
2018-06-29T19:40:55.212Z,26.70
2018-06-29T19:44:28.527Z,26.60
2018-06-29T19:48:02.284Z,26.50
2018-06-29T19:51:35.570Z,26.50
2018-06-29T19:55:08.824Z,26.40
2018-06-29T19:58:42.239Z,26.30
2018-06-29T20:02:15.456Z,26.10
2018-06-29T20:05:48.700Z,26.00
2018-06-29T20:09:21.942Z,25.90
2018-06-29T20:12:55.213Z,25.80
2018-06-29T20:16:29.507Z,25.70
2018-06-29T20:20:02.788Z,25.60
2018-06-29T20:23:36.107Z,25.50
2018-06-29T20:27:09.371Z,25.40
2018-06-29T20:30:42.648Z,25.40
2018-06-29T20:34:15.931Z,25.30
2018-06-29T20:37:49.183Z,25.20
2018-06-29T20:41:22.447Z,25.10
2018-06-29T20:44:55.716Z,25.10
2018-06-29T20:48:29.021Z,25.10
2018-06-29T20:52:02.284Z,24.90
2018-06-29T20:55:35.559Z,24.90
2018-06-29T20:59:08.810Z,24.80
2018-06-29T21:02:42.080Z,24.80
2018-06-29T21:06:15.792Z,24.70
2018-06-29T21:09:49.116Z,24.60
2018-06-29T21:13:22.348Z,24.60
2018-06-29T21:16:55.636Z,24.50
2018-06-29T21:20:28.955Z,24.50
2018-06-29T21:27:35.228Z,24.30
2018-06-29T21:31:08.539Z,24.20
2018-06-29T21:34:41.811Z,24.20
2018-06-29T21:38:15.125Z,24.00
2018-06-29T21:41:48.385Z,23.90
2018-06-29T21:45:21.694Z,23.90
2018-06-29T21:48:54.960Z,23.80
2018-06-29T21:52:28.256Z,23.70
2018-06-29T21:56:01.517Z,23.60
2018-06-29T21:59:34.788Z,23.60
2018-06-29T22:03:08.156Z,23.50
2018-06-29T22:06:41.459Z,23.40
2018-06-29T22:10:14.760Z,23.40
2018-06-29T22:20:53.995Z,23.20
2018-06-29T22:24:27.240Z,23.00
2018-06-29T22:28:00.540Z,22.90
2018-06-29T22:31:33.762Z,22.80
2018-06-29T22:35:07.008Z,22.70
2018-06-29T22:38:40.259Z,22.60
2018-06-29T22:42:13.489Z,22.60
2018-06-29T22:45:46.760Z,22.50
2018-06-29T22:49:20.037Z,22.40
2018-06-29T22:52:53.320Z,22.40
2018-06-29T22:56:26.575Z,22.30
2018-06-29T22:59:59.840Z,22.20
2018-06-29T23:03:38.517Z,22.20
2018-06-29T23:07:11.766Z,22.10
2018-06-29T23:10:45.005Z,22.10
2018-06-29T23:14:18.286Z,22.00
2018-06-29T23:17:51.525Z,21.90
2018-06-29T23:21:24.816Z,21.80
2018-06-29T23:24:58.073Z,21.80
2018-06-29T23:32:04.338Z,21.60
2018-06-29T23:35:37.637Z,21.50
2018-06-29T23:39:11.604Z,21.50
2018-06-29T23:42:44.856Z,21.50
2018-06-29T23:46:18.096Z,21.40
2018-06-29T23:49:51.468Z,21.30
2018-06-29T23:53:24.704Z,21.30
2018-06-29T23:56:57.999Z,21.30
